Terminal Aerodrome Forecast
Issued by NWS Buffalo, NY

Current Version | Previous Version | Text Only | Print | Product List | Glossary On
Versions: 1 2 3 4 5 6 7 8 9 10 11 12 13 14 15 16 17 18 19 20 21 22 23 24 25 26
251
FTUS41 KBUF 220520
TAFROC
TAF
KROC 220520Z 2206/2306 25005KT P6SM SKC
     FM221100 23004KT P6SM SKC
     FM221600 34006KT P6SM SKC
     FM221900 02008KT P6SM SKC
     FM230000 05005KT P6SM SKC
     FM230300 18003KT P6SM SKC=

USA.gov is the U.S. government's official web portal to all federal, state and local government web resources and services.